Time;durP1;ratioP1;P1;durP2;ratioP2;P2;SDS_P1;SDS_P2;PMS_P1;PMS_P2;Temp;Humidity;BMP_temperature;BMP_pressure;BME280_temperature;BME280_humidity;BME280_pressure;Samples;Min_cycle;Max_cycle;Signal;HPM_P1;HPM_P2
2023/07/04 00:01:55;;;;;;;1.60;1.30;;;17.90;99.90;;;;;;5006947;28;20209;-73
2023/07/04 00:04:23;;;;;;;1.40;1.30;;;17.90;99.90;;;;;;5002730;28;20200;-73
2023/07/04 00:06:50;;;;;;;1.65;1.55;;;17.90;99.90;;;;;;4999375;28;20291;-73
2023/07/04 00:09:18;;;;;;;1.80;1.70;;;17.70;99.90;;;;;;4998132;28;20898;-72
2023/07/04 00:11:47;;;;;;;2.38;2.00;;;17.50;99.90;;;;;;5005459;28;20296;-73
2023/07/04 00:14:14;;;;;;;1.80;1.70;;;17.40;99.90;;;;;;5003951;28;20208;-72
2023/07/04 00:16:41;;;;;;;1.92;1.75;;;17.40;99.90;;;;;;4998019;28;20200;-73
2023/07/04 00:19:08;;;;;;;1.67;1.58;;;17.40;99.90;;;;;;4996720;28;20312;-73
2023/07/04 00:21:38;;;;;;;1.70;1.60;;;17.50;99.90;;;;;;4997366;28;20306;-73
2023/07/04 00:24:06;;;;;;;1.80;1.70;;;17.60;99.90;;;;;;4999698;28;20272;-73
2023/07/04 00:26:35;;;;;;;1.95;1.80;;;17.70;99.90;;;;;;5004143;28;20267;-72
2023/07/04 00:29:03;;;;;;;1.60;1.50;;;17.60;99.90;;;;;;4995758;28;20232;-73
2023/07/04 00:31:30;;;;;;;1.90;1.52;;;17.60;99.90;;;;;;5000616;28;20219;-72
2023/07/04 00:33:57;;;;;;;2.00;1.63;;;17.60;99.90;;;;;;5001032;28;20188;-73
2023/07/04 00:36:24;;;;;;;1.50;1.40;;;17.60;99.90;;;;;;5005034;28;20208;-73
2023/07/04 00:38:57;;;;;;;1.90;1.80;;;17.60;99.90;;;;;;4998898;28;20271;-71
2023/07/04 00:41:25;;;;;;;1.70;1.60;;;17.50;99.90;;;;;;5001751;28;20818;-73
2023/07/04 00:44:00;;;;;;;1.80;1.70;;;17.50;99.90;;;;;;4997965;28;20216;-73
2023/07/04 00:46:40;;;;;;;2.20;2.00;;;17.60;99.90;;;;;;5002905;28;20204;-73
2023/07/04 00:49:22;;;;;;;2.00;1.90;;;17.50;99.90;;;;;;4996865;28;20679;-73
2023/07/04 00:51:56;;;;;;;1.77;1.67;;;17.50;99.90;;;;;;5003509;28;20210;-72
2023/07/04 00:54:25;;;;;;;1.80;1.70;;;17.50;99.90;;;;;;4999825;28;20258;-71
2023/07/04 00:56:57;;;;;;;1.63;1.52;;;17.50;99.90;;;;;;5008330;28;20283;-73
2023/07/04 00:59:25;;;;;;;1.73;1.63;;;17.50;99.90;;;;;;5003511;28;20224;-73
2023/07/04 01:01:57;;;;;;;1.65;1.40;;;17.40;99.90;;;;;;4998955;28;20221;-73
2023/07/04 01:04:24;;;;;;;1.75;1.63;;;17.50;99.90;;;;;;5000686;28;20231;-73
2023/07/04 01:06:59;;;;;;;1.60;1.50;;;17.40;99.90;;;;;;5002268;28;20224;-72
2023/07/04 01:09:29;;;;;;;1.70;1.60;;;17.40;99.90;;;;;;4996513;28;20220;-73
2023/07/04 01:11:58;;;;;;;2.22;2.00;;;17.40;99.90;;;;;;5003392;28;20216;-73
2023/07/04 01:14:27;;;;;;;1.83;1.65;;;17.40;99.90;;;;;;5001989;28;20204;-72
2023/07/04 01:16:56;;;;;;;1.60;1.50;;;17.40;99.90;;;;;;5000392;28;20228;-72
2023/07/04 01:19:30;;;;;;;1.92;1.80;;;17.40;99.90;;;;;;5002636;28;20278;-72
2023/07/04 01:22:19;;;;;;;1.60;1.50;;;17.40;99.90;;;;;;5000341;28;20283;-73
2023/07/04 01:24:57;;;;;;;1.73;1.63;;;17.40;99.90;;;;;;4995612;28;20581;-73
2023/07/04 01:27:27;;;;;;;2.00;1.80;;;17.40;99.90;;;;;;4999500;28;20200;-73
2023/07/04 01:30:00;;;;;;;1.95;1.85;;;17.30;99.90;;;;;;5002271;28;20310;-73
2023/07/04 01:32:28;;;;;;;1.92;1.73;;;17.30;99.90;;;;;;5005710;28;20254;-73
2023/07/04 01:34:58;;;;;;;1.60;1.50;;;17.30;99.90;;;;;;5004845;28;20232;-73
2023/07/04 01:37:29;;;;;;;1.70;1.60;;;17.30;99.90;;;;;;5004380;28;20626;-73
2023/07/04 01:39:57;;;;;;;1.60;1.50;;;17.30;99.90;;;;;;5007184;28;20216;-73
2023/07/04 01:42:31;;;;;;;2.08;1.88;;;17.30;99.90;;;;;;5005145;28;20555;-73
2023/07/04 01:45:01;;;;;;;2.70;1.80;;;17.20;99.90;;;;;;5005727;28;20203;-72
2023/07/04 01:47:28;;;;;;;1.40;1.30;;;17.20;99.90;;;;;;5006030;28;20208;-72
2023/07/04 01:49:56;;;;;;;2.25;2.05;;;17.20;99.90;;;;;;5002025;28;20314;-71
2023/07/04 01:52:23;;;;;;;1.70;1.60;;;17.20;99.90;;;;;;5002270;28;20216;-72
2023/07/04 01:54:51;;;;;;;1.65;1.55;;;17.20;99.90;;;;;;5005260;28;20275;-72
2023/07/04 01:57:18;;;;;;;2.40;2.20;;;17.20;99.90;;;;;;4987465;28;20819;-72
2023/07/04 01:59:46;;;;;;;1.95;1.70;;;17.20;99.90;;;;;;5005610;28;20702;-72
2023/07/04 02:02:13;;;;;;;1.65;1.55;;;17.20;99.90;;;;;;5002178;28;20771;-72
2023/07/04 02:04:41;;;;;;;1.30;1.30;;;17.20;99.90;;;;;;5002711;28;20201;-72
2023/07/04 02:07:11;;;;;;;2.65;1.65;;;17.20;99.90;;;;;;5002037;28;20232;-73
2023/07/04 02:09:38;;;;;;;1.60;1.50;;;17.20;99.90;;;;;;5004824;28;20216;-72
2023/07/04 02:12:06;;;;;;;1.65;1.55;;;17.20;99.90;;;;;;5009249;28;20700;-72
2023/07/04 02:14:33;;;;;;;1.70;1.60;;;17.20;99.90;;;;;;5010033;28;20212;-72
2023/07/04 02:17:02;;;;;;;1.50;1.40;;;17.20;99.90;;;;;;5007318;28;20674;-71
2023/07/04 02:19:29;;;;;;;1.77;1.60;;;17.20;99.90;;;;;;5002011;28;20217;-71
2023/07/04 02:21:57;;;;;;;1.65;1.55;;;17.20;99.90;;;;;;5004907;28;20273;-72
2023/07/04 02:24:23;;;;;;;1.30;1.30;;;17.20;99.90;;;;;;5002104;28;20211;-72
2023/07/04 02:26:51;;;;;;;1.48;1.38;;;17.20;99.90;;;;;;5003269;28;20232;-72
2023/07/04 02:29:18;;;;;;;1.92;1.83;;;17.10;99.90;;;;;;5005724;28;20220;-72
2023/07/04 02:31:45;;;;;;;1.10;1.10;;;17.10;99.90;;;;;;4998578;28;20415;-71
2023/07/04 02:34:13;;;;;;;1.65;1.55;;;17.10;99.90;;;;;;5005317;28;20291;-72
2023/07/04 02:36:41;;;;;;;1.73;1.50;;;17.10;99.90;;;;;;4997669;28;20228;-73
2023/07/04 02:39:08;;;;;;;1.40;1.30;;;17.10;99.90;;;;;;5006724;28;20220;-73
2023/07/04 02:41:35;;;;;;;1.65;1.55;;;17.10;99.90;;;;;;5004363;28;20207;-73
2023/07/04 02:44:02;;;;;;;1.85;1.33;;;17.10;99.90;;;;;;5002491;28;20287;-73
2023/07/04 02:46:30;;;;;;;5.13;1.83;;;17.10;99.90;;;;;;5003955;28;20263;-72
2023/07/04 02:48:57;;;;;;;1.60;1.50;;;17.10;99.90;;;;;;5002068;28;20315;-72
2023/07/04 02:51:26;;;;;;;1.73;1.55;;;17.10;99.90;;;;;;5005775;28;20295;-73
2023/07/04 02:53:53;;;;;;;1.63;1.52;;;17.10;99.90;;;;;;5004812;28;20235;-72
2023/07/04 02:56:20;;;;;;;1.52;1.42;;;17.10;99.90;;;;;;5007161;28;20204;-72
2023/07/04 02:58:47;;;;;;;1.50;1.40;;;17.10;99.90;;;;;;4998907;28;20256;-72
2023/07/04 03:01:14;;;;;;;1.60;1.50;;;17.10;99.90;;;;;;5001815;28;20201;-71
2023/07/04 03:03:41;;;;;;;1.75;1.65;;;17.10;99.90;;;;;;5006972;28;20287;-72
2023/07/04 03:06:11;;;;;;;1.60;1.50;;;17.10;99.90;;;;;;5004979;28;20254;-72
2023/07/04 03:08:40;;;;;;;1.60;1.50;;;17.00;99.90;;;;;;5002779;28;20226;-72
2023/07/04 03:11:08;;;;;;;1.63;1.52;;;17.00;99.90;;;;;;5002980;28;20324;-72
2023/07/04 03:13:36;;;;;;;1.60;1.50;;;17.00;99.90;;;;;;5000505;28;20235;-71
2023/07/04 03:16:03;;;;;;;1.70;1.60;;;17.00;99.90;;;;;;5000949;28;20271;-73
2023/07/04 03:18:30;;;;;;;1.50;1.40;;;17.00;99.90;;;;;;5001418;28;20224;-72
2023/07/04 03:20:57;;;;;;;1.40;1.30;;;17.00;99.90;;;;;;5004382;28;20219;-71
2023/07/04 03:23:26;;;;;;;1.60;1.50;;;17.00;99.90;;;;;;5003902;28;20208;-73
2023/07/04 03:25:54;;;;;;;1.55;1.45;;;16.90;99.90;;;;;;5002111;28;20209;-74
2023/07/04 03:28:21;;;;;;;1.70;1.60;;;16.90;99.90;;;;;;5011498;28;20200;-75
2023/07/04 03:30:48;;;;;;;1.60;1.50;;;16.90;99.90;;;;;;5000306;28;20263;-74
2023/07/04 03:33:16;;;;;;;1.67;1.58;;;17.00;99.90;;;;;;5003235;28;20215;-74
2023/07/04 03:35:43;;;;;;;1.60;1.50;;;17.00;99.90;;;;;;5001007;28;20621;-73
2023/07/04 03:38:11;;;;;;;2.20;1.80;;;17.00;99.90;;;;;;5002599;28;20231;-73
2023/07/04 03:40:38;;;;;;;1.60;1.50;;;17.00;99.90;;;;;;5003399;28;20240;-74
2023/07/04 03:43:07;;;;;;;1.88;1.77;;;17.00;99.90;;;;;;5004089;28;20200;-73
2023/07/04 03:45:34;;;;;;;2.00;1.90;;;17.00;99.90;;;;;;5001392;28;20279;-73
2023/07/04 03:48:02;;;;;;;1.42;1.33;;;17.00;99.90;;;;;;5001547;28;20254;-73
2023/07/04 03:50:29;;;;;;;1.70;1.60;;;17.00;99.90;;;;;;4997052;28;20252;-73
2023/07/04 03:52:58;;;;;;;1.60;1.50;;;17.00;99.90;;;;;;5003465;28;20246;-73
2023/07/04 03:55:26;;;;;;;1.55;1.48;;;17.10;99.90;;;;;;4999040;28;20201;-74
2023/07/04 03:57:53;;;;;;;1.70;1.60;;;17.00;99.90;;;;;;5011982;28;20196;-74
2023/07/04 04:00:21;;;;;;;1.73;1.63;;;17.00;99.90;;;;;;5005721;28;20254;-74
2023/07/04 04:02:48;;;;;;;2.00;1.90;;;17.10;99.90;;;;;;4999357;28;20213;-73
2023/07/04 04:05:16;;;;;;;1.58;1.48;;;17.10;99.90;;;;;;5004257;28;20228;-73
2023/07/04 04:07:43;;;;;;;1.80;1.70;;;17.10;99.90;;;;;;5001367;28;20259;-74
2023/07/04 04:10:10;;;;;;;1.77;1.67;;;17.10;99.90;;;;;;5000986;28;20221;-74
2023/07/04 04:12:38;;;;;;;2.42;1.70;;;17.20;99.90;;;;;;5002408;28;20288;-73
2023/07/04 04:15:05;;;;;;;1.85;1.60;;;17.20;99.90;;;;;;5004296;28;20204;-73
2023/07/04 04:17:34;;;;;;;1.92;1.83;;;17.30;99.90;;;;;;5004656;28;20311;-73
2023/07/04 04:20:07;;;;;;;1.52;1.42;;;17.30;99.90;;;;;;5000508;28;20220;-72
2023/07/04 04:22:35;;;;;;;1.50;1.40;;;17.30;99.90;;;;;;5001380;28;20201;-73
2023/07/04 04:25:02;;;;;;;1.83;1.73;;;17.40;99.90;;;;;;4997278;28;20909;-73
2023/07/04 04:27:30;;;;;;;1.92;1.83;;;17.40;99.90;;;;;;4999233;28;20723;-73
2023/07/04 04:30:05;;;;;;;1.77;1.67;;;17.50;99.90;;;;;;5004596;28;20223;-73
2023/07/04 04:32:32;;;;;;;2.55;1.83;;;17.50;99.90;;;;;;5000414;28;20204;-73
2023/07/04 04:35:00;;;;;;;2.10;1.90;;;17.50;99.90;;;;;;5006010;28;20825;-72
2023/07/04 04:37:27;;;;;;;2.08;1.98;;;17.50;99.90;;;;;;4999117;28;20532;-72
2023/07/04 04:39:54;;;;;;;2.20;2.10;;;17.50;99.90;;;;;;5005548;28;20361;-71
2023/07/04 04:42:23;;;;;;;1.85;1.75;;;17.50;99.90;;;;;;5015580;28;20251;-72
2023/07/04 04:44:53;;;;;;;1.90;1.80;;;17.50;99.90;;;;;;4994756;28;20286;-73
2023/07/04 04:47:22;;;;;;;2.05;1.95;;;17.50;99.90;;;;;;4995886;28;20780;-72
2023/07/04 04:49:50;;;;;;;2.08;1.98;;;17.60;99.90;;;;;;5002448;28;20267;-71
2023/07/04 04:52:23;;;;;;;2.10;2.00;;;17.60;99.90;;;;;;4998916;28;20790;-72
2023/07/04 04:54:50;;;;;;;2.53;2.33;;;17.60;99.90;;;;;;4999052;28;20220;-71
2023/07/04 04:57:17;;;;;;;2.53;2.33;;;17.50;99.90;;;;;;4997833;28;20846;-72
2023/07/04 04:59:44;;;;;;;2.65;2.45;;;17.50;99.90;;;;;;5003058;28;20260;-72
2023/07/04 05:02:11;;;;;;;3.67;2.67;;;17.40;99.90;;;;;;4998661;28;20196;-72
2023/07/04 05:04:39;;;;;;;2.10;2.00;;;17.40;99.90;;;;;;5005736;28;20201;-73
2023/07/04 05:07:06;;;;;;;2.50;2.30;;;17.40;99.90;;;;;;5004294;28;20204;-73
2023/07/04 05:09:35;;;;;;;2.78;2.30;;;17.50;99.90;;;;;;5005993;28;20259;-72
2023/07/04 05:12:02;;;;;;;2.30;2.10;;;17.50;99.90;;;;;;5007827;28;20207;-74
2023/07/04 05:14:29;;;;;;;2.03;1.92;;;17.50;99.90;;;;;;5005870;28;20221;-72
2023/07/04 05:16:56;;;;;;;2.30;2.10;;;17.60;99.90;;;;;;5003445;28;20232;-74
2023/07/04 05:19:24;;;;;;;1.80;1.70;;;17.60;99.90;;;;;;5001411;28;20670;-74
2023/07/04 05:21:51;;;;;;;2.10;2.00;;;17.60;99.90;;;;;;5004713;28;20814;-74
2023/07/04 05:24:18;;;;;;;2.42;2.20;;;17.70;99.90;;;;;;5001890;28;20730;-72
2023/07/04 05:26:46;;;;;;;2.05;1.95;;;17.80;99.90;;;;;;5007459;28;20786;-74
2023/07/04 05:29:14;;;;;;;2.00;1.90;;;17.80;99.90;;;;;;5003857;28;20255;-72
2023/07/04 05:31:41;;;;;;;1.75;1.65;;;17.90;99.90;;;;;;5007111;28;20212;-72
2023/07/04 05:34:08;;;;;;;1.73;1.58;;;18.00;99.90;;;;;;5002192;28;20211;-72
2023/07/04 05:36:37;;;;;;;2.40;2.20;;;18.10;99.90;;;;;;5004507;28;20259;-72
2023/07/04 05:39:06;;;;;;;2.50;2.30;;;18.20;99.90;;;;;;5001689;28;20710;-72
2023/07/04 05:41:35;;;;;;;2.35;2.15;;;18.50;99.90;;;;;;5001932;28;20200;-72
2023/07/04 05:44:07;;;;;;;2.20;2.10;;;19.00;99.90;;;;;;5004921;28;20228;-72
2023/07/04 05:46:35;;;;;;;2.30;2.15;;;19.50;99.90;;;;;;5004880;28;20298;-72
2023/07/04 05:49:02;;;;;;;1.95;1.85;;;19.70;99.90;;;;;;5005093;28;20322;-72
2023/07/04 05:51:30;;;;;;;3.47;2.67;;;19.70;99.90;;;;;;4998511;28;20874;-72
2023/07/04 05:53:58;;;;;;;2.53;2.33;;;19.60;99.90;;;;;;5004623;28;20756;-72
2023/07/04 05:56:27;;;;;;;2.60;2.40;;;19.50;99.90;;;;;;5003476;28;20232;-71
2023/07/04 05:58:55;;;;;;;3.40;2.45;;;19.30;99.90;;;;;;5013531;28;20282;-72
2023/07/04 06:01:26;;;;;;;3.05;2.78;;;19.20;99.90;;;;;;5002336;28;20672;-74
2023/07/04 06:03:54;;;;;;;2.58;2.38;;;19.10;99.90;;;;;;5009114;28;20652;-73
2023/07/04 06:06:24;;;;;;;2.67;2.47;;;19.00;99.90;;;;;;4999787;28;20226;-71
2023/07/04 06:08:54;;;;;;;2.90;2.70;;;19.00;99.90;;;;;;5003488;28;20718;-72
2023/07/04 06:11:24;;;;;;;4.50;3.28;;;19.20;99.90;;;;;;4996030;28;20244;-72
2023/07/04 06:13:54;;;;;;;3.10;2.80;;;19.40;99.90;;;;;;5005152;28;20629;-72
2023/07/04 06:16:23;;;;;;;2.80;2.53;;;19.70;99.90;;;;;;5005495;28;20791;-72
2023/07/04 06:18:51;;;;;;;2.70;2.50;;;19.90;99.90;;;;;;5009105;28;20343;-72
2023/07/04 06:21:21;;;;;;;2.95;2.65;;;20.10;99.90;;;;;;5000681;28;20208;-72
2023/07/04 06:23:49;;;;;;;3.38;3.03;;;20.20;99.90;;;;;;4991853;28;20660;-72
2023/07/04 06:26:16;;;;;;;3.35;2.90;;;20.10;99.90;;;;;;4998577;28;20208;-72
2023/07/04 06:28:44;;;;;;;4.40;2.97;;;19.80;99.90;;;;;;5005224;28;20737;-72
2023/07/04 06:31:13;;;;;;;2.90;2.70;;;19.70;99.90;;;;;;5003243;28;20216;-72
2023/07/04 06:33:44;;;;;;;3.20;2.65;;;19.70;99.90;;;;;;5007146;28;20208;-73
2023/07/04 06:36:14;;;;;;;3.25;2.47;;;19.70;99.90;;;;;;5002646;28;20196;-72
2023/07/04 06:38:42;;;;;;;4.07;3.20;;;19.80;99.90;;;;;;5006543;28;20339;-72
2023/07/04 06:41:11;;;;;;;3.20;3.00;;;19.80;99.90;;;;;;5001495;28;20232;-72
2023/07/04 06:43:39;;;;;;;4.25;3.05;;;19.90;99.90;;;;;;5004730;28;20209;-73
2023/07/04 06:46:07;;;;;;;3.05;2.83;;;20.30;99.90;;;;;;5003446;28;20214;-72
2023/07/04 06:48:34;;;;;;;4.68;3.92;;;20.60;99.90;;;;;;5002560;28;20248;-73
2023/07/04 06:51:05;;;;;;;4.25;2.92;;;20.80;99.90;;;;;;5005147;28;20304;-73
2023/07/04 06:53:34;;;;;;;3.60;2.92;;;21.00;99.90;;;;;;5002813;28;20876;-72
2023/07/04 06:56:06;;;;;;;3.50;3.20;;;21.20;99.90;;;;;;5007085;28;20234;-73
2023/07/04 06:58:35;;;;;;;3.53;3.22;;;21.40;99.90;;;;;;4988017;28;20991;-75
2023/07/04 07:01:03;;;;;;;2.70;2.50;;;21.50;99.90;;;;;;5001115;28;20259;-74
2023/07/04 07:03:30;;;;;;;2.80;2.60;;;21.40;99.90;;;;;;4998945;28;20204;-71
2023/07/04 07:05:58;;;;;;;3.38;3.08;;;21.10;99.90;;;;;;4996382;28;20220;-72
2023/07/04 07:08:26;;;;;;;3.17;2.92;;;20.80;99.90;;;;;;4997611;28;20737;-73
2023/07/04 07:10:56;;;;;;;2.85;2.65;;;20.60;99.90;;;;;;4998231;28;20304;-73
2023/07/04 07:13:25;;;;;;;2.83;2.60;;;20.80;99.90;;;;;;5012918;28;20203;-70
2023/07/04 07:15:54;;;;;;;3.67;2.50;;;21.20;99.90;;;;;;5009577;28;21957;-72
2023/07/04 07:18:21;;;;;;;2.63;2.40;;;21.40;99.90;;;;;;4996849;28;20211;-73
2023/07/04 07:20:48;;;;;;;2.83;2.63;;;21.50;99.90;;;;;;5000799;28;20197;-70
2023/07/04 07:23:15;;;;;;;3.00;2.67;;;21.70;99.90;;;;;;5006282;28;20263;-71
2023/07/04 07:25:54;;;;;;;2.50;2.30;;;21.80;99.90;;;;;;5005116;28;20200;-72
2023/07/04 07:28:21;;;;;;;3.85;2.92;;;21.70;99.90;;;;;;5003143;28;20203;-73
2023/07/04 07:30:48;;;;;;;4.13;3.15;;;21.50;99.90;;;;;;5003933;28;20224;-74
2023/07/04 07:33:16;;;;;;;2.83;2.63;;;21.50;99.90;;;;;;5006088;28;20200;-71
2023/07/04 07:35:43;;;;;;;2.58;2.38;;;21.70;99.90;;;;;;5009515;28;20215;-73
2023/07/04 07:38:11;;;;;;;2.70;2.50;;;22.00;99.90;;;;;;5006347;28;20228;-77
2023/07/04 07:40:38;;;;;;;4.07;2.80;;;22.30;99.90;;;;;;5004851;28;20334;-75
2023/07/04 07:43:07;;;;;;;2.78;2.58;;;22.50;99.90;;;;;;5006284;28;20581;-76
2023/07/04 07:45:34;;;;;;;2.50;2.30;;;22.60;99.90;;;;;;5003643;28;20204;-76
2023/07/04 07:48:02;;;;;;;2.55;2.35;;;22.30;99.90;;;;;;5004187;28;20211;-77
2023/07/04 07:50:30;;;;;;;4.32;3.03;;;21.90;99.90;;;;;;5003327;28;20220;-76
2023/07/04 07:53:00;;;;;;;2.60;2.40;;;21.80;99.90;;;;;;5003576;28;20208;-77
2023/07/04 07:55:28;;;;;;;2.97;2.70;;;21.70;99.90;;;;;;5005416;28;20204;-77
2023/07/04 07:57:55;;;;;;;2.85;2.55;;;21.70;99.90;;;;;;5003319;28;20285;-78
2023/07/04 08:00:30;;;;;;;2.20;2.00;;;21.60;99.90;;;;;;5007070;28;20224;-77
2023/07/04 08:03:05;;;;;;;2.75;2.55;;;21.70;99.90;;;;;;5005834;28;20223;-77
2023/07/04 08:05:46;;;;;;;2.60;2.40;;;21.90;99.90;;;;;;5009447;28;20192;-77
2023/07/04 08:08:17;;;;;;;3.13;2.70;;;22.00;99.90;;;;;;5015333;28;20203;-77
2023/07/04 08:10:45;;;;;;;2.80;2.60;;;22.20;99.90;;;;;;5020560;28;20222;-77
2023/07/04 08:13:13;;;;;;;3.28;2.90;;;22.10;99.90;;;;;;5012844;28;20651;-76
2023/07/04 08:15:42;;;;;;;2.70;2.50;;;22.00;99.90;;;;;;5004311;28;20220;-77
2023/07/04 08:24:56;;;;;;;4.05;2.92;;;21.70;99.90;;;;;;5010061;22;20294;-77
2023/07/04 08:27:25;;;;;;;4.93;3.55;;;21.60;99.90;;;;;;5017396;28;20231;-78
2023/07/04 08:29:53;;;;;;;3.28;2.97;;;21.50;99.90;;;;;;5010493;28;20793;-76
2023/07/04 08:32:22;;;;;;;4.70;2.90;;;21.40;99.90;;;;;;4999708;28;20215;-77
2023/07/04 08:34:49;;;;;;;3.88;3.15;;;21.40;99.90;;;;;;5001477;28;20205;-76
2023/07/04 08:37:17;;;;;;;3.20;2.72;;;21.50;99.90;;;;;;5000214;28;20299;-76
2023/07/04 08:39:46;;;;;;;3.13;2.90;;;21.50;99.90;;;;;;4980631;28;20685;-75
2023/07/04 08:42:15;;;;;;;2.85;2.63;;;21.60;99.90;;;;;;5000994;28;20208;-74
2023/07/04 08:44:45;;;;;;;3.20;3.00;;;21.80;99.90;;;;;;5005404;28;20341;-75
2023/07/04 08:47:18;;;;;;;2.80;2.60;;;22.00;99.90;;;;;;5003412;28;20258;-75
2023/07/04 08:49:51;;;;;;;5.72;2.65;;;22.30;99.90;;;;;;5006505;28;20271;-75
2023/07/04 08:52:23;;;;;;;4.68;3.10;;;22.50;99.90;;;;;;5006561;28;20219;-74
2023/07/04 08:54:51;;;;;;;3.00;2.80;;;22.70;99.90;;;;;;5006099;28;20214;-74
2023/07/04 08:57:27;;;;;;;3.22;2.50;;;22.70;99.90;;;;;;5010876;28;20706;-74
2023/07/04 08:59:58;;;;;;;2.97;2.58;;;22.70;99.90;;;;;;5002325;28;20258;-75
2023/07/04 09:02:57;;;;;;;2.80;2.55;;;22.60;99.90;;;;;;4993947;28;20204;-76
2023/07/04 09:05:35;;;;;;;3.00;2.80;;;22.70;99.90;;;;;;5005211;28;20204;-75
2023/07/04 09:08:09;;;;;;;2.90;2.67;;;22.90;99.90;;;;;;4987204;28;20674;-76
2023/07/04 09:10:43;;;;;;;3.15;2.85;;;23.00;99.90;;;;;;5007398;28;20200;-75
2023/07/04 09:13:13;;;;;;;2.90;2.55;;;23.40;99.90;;;;;;5008270;28;20855;-76
2023/07/04 09:15:44;;;;;;;3.70;2.53;;;23.60;99.90;;;;;;4991154;28;20256;-75
2023/07/04 09:18:21;;;;;;;4.28;2.90;;;23.80;99.90;;;;;;5000394;28;20243;-76
2023/07/04 09:21:05;;;;;;;2.92;2.70;;;24.00;99.90;;;;;;5000044;28;20834;-76
2023/07/04 09:23:32;;;;;;;3.33;3.03;;;24.30;99.90;;;;;;5004348;28;20740;-76
2023/07/04 09:26:00;;;;;;;3.03;2.83;;;24.40;99.90;;;;;;4983569;28;20213;-76
2023/07/04 09:28:30;;;;;;;2.85;2.65;;;24.30;99.90;;;;;;5002992;28;20295;-76
2023/07/04 09:31:00;;;;;;;3.25;2.50;;;24.40;99.90;;;;;;4988231;28;20270;-77
2023/07/04 09:33:29;;;;;;;3.70;2.92;;;24.50;99.90;;;;;;4987684;28;20220;-76
2023/07/04 09:35:58;;;;;;;3.17;2.47;;;24.70;99.90;;;;;;5002641;28;20209;-76
2023/07/04 09:38:25;;;;;;;3.00;2.72;;;24.80;99.90;;;;;;5001216;28;20204;-76
2023/07/04 09:40:55;;;;;;;4.05;2.88;;;25.00;99.90;;;;;;5001705;28;20231;-76
2023/07/04 09:43:29;;;;;;;3.00;2.72;;;25.00;99.90;;;;;;4990745;28;20207;-77
2023/07/04 09:46:18;;;;;;;2.85;2.65;;;25.00;99.90;;;;;;5005492;28;20253;-76
2023/07/04 09:48:46;;;;;;;3.00;2.80;;;25.10;99.90;;;;;;5002691;28;20242;-76
2023/07/04 09:51:26;;;;;;;3.00;2.70;;;25.20;99.90;;;;;;4983980;28;20314;-75
2023/07/04 09:54:09;;;;;;;3.42;3.13;;;25.30;99.90;;;;;;5004075;28;20403;-77
2023/07/04 09:56:36;;;;;;;6.07;2.88;;;25.40;99.90;;;;;;5003104;28;20206;-76
2023/07/04 09:59:16;;;;;;;3.10;2.90;;;25.40;99.90;;;;;;5013599;28;20884;-76
2023/07/04 10:01:45;;;;;;;2.90;2.70;;;25.50;99.90;;;;;;5001387;28;20291;-76
2023/07/04 10:04:14;;;;;;;4.00;2.58;;;25.60;99.90;;;;;;5014459;28;20199;-76
2023/07/04 10:06:44;;;;;;;3.13;2.80;;;25.60;99.90;;;;;;5000576;28;20623;-76
2023/07/04 10:09:18;;;;;;;3.78;3.10;;;25.50;99.90;;;;;;5001312;28;20764;-76
2023/07/04 10:11:47;;;;;;;4.30;3.45;;;25.40;99.90;;;;;;5002871;28;20218;-75
2023/07/04 10:14:15;;;;;;;3.25;3.05;;;25.10;99.90;;;;;;5002895;28;20201;-74
2023/07/04 10:16:50;;;;;;;3.50;3.20;;;24.90;99.90;;;;;;4985728;28;20283;-75
2023/07/04 10:19:20;;;;;;;3.80;3.20;;;25.10;99.90;;;;;;4983000;28;20273;-75
2023/07/04 10:21:52;;;;;;;4.35;3.92;;;25.40;99.90;;;;;;5000825;28;20300;-75
2023/07/04 10:24:23;;;;;;;3.70;3.40;;;25.70;99.90;;;;;;5000624;28;20216;-76
2023/07/04 10:26:54;;;;;;;3.85;3.55;;;25.90;99.90;;;;;;5003399;28;20248;-77
2023/07/04 10:29:31;;;;;;;4.68;4.20;;;26.40;99.90;;;;;;5002808;28;20223;-77
2023/07/04 10:32:02;;;;;;;3.45;3.03;;;26.60;99.90;;;;;;5003314;28;20225;-76
2023/07/04 10:34:33;;;;;;;3.42;3.13;;;26.60;99.90;;;;;;5002874;28;20208;-76
2023/07/04 10:37:02;;;;;;;3.75;3.45;;;26.50;99.90;;;;;;5000244;28;20219;-74
2023/07/04 10:39:32;;;;;;;3.97;3.67;;;26.30;99.90;;;;;;4999861;28;20251;-74
2023/07/04 10:42:07;;;;;;;3.70;3.40;;;26.10;99.90;;;;;;4995591;28;20855;-75
2023/07/04 10:44:37;;;;;;;3.38;3.08;;;25.80;99.90;;;;;;5007984;28;20191;-75
2023/07/04 10:47:08;;;;;;;3.97;3.67;;;25.80;99.90;;;;;;5005360;28;20200;-75
2023/07/04 10:49:44;;;;;;;4.15;3.75;;;25.90;99.90;;;;;;4990820;28;20232;-74
2023/07/04 10:52:17;;;;;;;3.95;3.55;;;26.00;99.90;;;;;;5004313;28;20257;-74
2023/07/04 10:54:44;;;;;;;3.40;3.10;;;26.10;99.90;;;;;;5010957;28;20204;-74
2023/07/04 10:57:20;;;;;;;3.22;3.03;;;26.60;99.90;;;;;;5006060;28;20231;-74
2023/07/04 10:59:50;;;;;;;3.53;3.13;;;27.00;99.90;;;;;;4989102;28;20596;-74
2023/07/04 11:02:24;;;;;;;3.10;2.90;;;27.30;99.90;;;;;;5003246;28;20767;-72
2023/07/04 11:04:57;;;;;;;3.28;3.03;;;27.50;99.90;;;;;;5007299;28;20224;-73
2023/07/04 11:07:27;;;;;;;3.10;2.80;;;27.50;99.90;;;;;;5023738;28;20207;-73
2023/07/04 11:09:57;;;;;;;2.92;2.72;;;27.50;99.90;;;;;;5008485;28;20216;-72
2023/07/04 11:12:28;;;;;;;2.72;2.53;;;27.80;99.90;;;;;;5006268;28;20251;-72
2023/07/04 11:15:03;;;;;;;2.92;2.72;;;28.00;99.90;;;;;;5005095;28;20202;-73
2023/07/04 11:17:34;;;;;;;3.25;3.03;;;28.20;99.90;;;;;;5006334;28;20299;-74
2023/07/04 11:20:11;;;;;;;2.85;2.65;;;28.00;99.90;;;;;;4986877;28;20219;-75
2023/07/04 11:23:00;;;;;;;2.80;2.60;;;28.10;99.90;;;;;;5006734;28;20704;-75
2023/07/04 11:25:36;;;;;;;3.20;3.00;;;28.30;99.90;;;;;;4982529;28;20208;-75
2023/07/04 11:28:19;;;;;;;2.90;2.70;;;28.30;99.90;;;;;;4984182;28;20645;-74
2023/07/04 11:30:48;;;;;;;2.92;2.72;;;28.30;99.90;;;;;;5001713;28;20204;-75
2023/07/04 11:33:40;;;;;;;2.95;2.65;;;28.60;99.90;;;;;;5004893;28;20833;-70
2023/07/04 11:36:09;;;;;;;2.40;2.20;;;28.70;99.90;;;;;;5004124;28;20212;-70
2023/07/04 11:38:44;;;;;;;2.63;2.42;;;28.20;99.90;;;;;;5002915;28;20311;-71
2023/07/04 11:41:11;;;;;;;2.65;2.45;;;27.80;99.90;;;;;;5001834;28;20287;-70
2023/07/04 11:43:45;;;;;;;2.65;2.45;;;27.30;99.90;;;;;;5003446;28;20848;-72
2023/07/04 11:46:23;;;;;;;2.75;2.55;;;27.20;99.90;;;;;;4999443;28;20216;-71
2023/07/04 11:48:52;;;;;;;2.53;2.33;;;27.00;99.90;;;;;;5003498;28;20230;-72
2023/07/04 11:51:22;;;;;;;2.67;2.40;;;26.80;99.90;;;;;;5000329;28;20669;-72
2023/07/04 11:53:57;;;;;;;2.13;2.03;;;27.20;99.90;;;;;;4996346;28;20641;-71
2023/07/04 11:56:38;;;;;;;3.25;2.60;;;27.90;99.90;;;;;;5001634;28;20302;-71
2023/07/04 11:59:41;;;;;;;3.70;2.60;;;28.60;99.90;;;;;;5001874;28;20307;-70
2023/07/04 12:02:27;;;;;;;2.33;2.13;;;28.40;99.90;;;;;;5001388;28;20273;-70
2023/07/04 12:04:55;;;;;;;3.20;2.90;;;28.70;99.90;;;;;;4998569;28;20287;-71
2023/07/04 12:07:33;;;;;;;2.83;2.60;;;28.70;99.90;;;;;;5003373;28;20408;-71
2023/07/04 12:10:09;;;;;;;2.70;2.50;;;28.70;99.90;;;;;;5002487;28;20226;-71
2023/07/04 12:12:39;;;;;;;2.42;2.22;;;28.80;99.90;;;;;;5005051;28;20247;-71
2023/07/04 12:15:09;;;;;;;2.42;2.22;;;29.10;99.90;;;;;;5003020;28;20240;-70
2023/07/04 12:17:39;;;;;;;2.85;2.65;;;29.20;99.90;;;;;;4969856;28;20212;-71
2023/07/04 12:20:10;;;;;;;3.45;3.03;;;29.30;99.90;;;;;;5002758;28;20220;-73
2023/07/04 12:22:43;;;;;;;3.35;2.70;;;29.30;99.90;;;;;;5002534;28;20204;-72
2023/07/04 12:25:27;;;;;;;3.25;2.40;;;28.90;99.90;;;;;;5002751;28;20839;-74
2023/07/04 12:27:56;;;;;;;3.45;2.80;;;28.90;99.90;;;;;;5003012;28;20235;-73
2023/07/04 12:30:24;;;;;;;2.70;2.50;;;29.10;99.90;;;;;;5003481;28;20311;-72
2023/07/04 12:32:52;;;;;;;3.78;2.60;;;29.00;99.90;;;;;;4994904;28;20337;-72
2023/07/04 12:35:25;;;;;;;3.97;2.88;;;29.00;99.90;;;;;;4999360;28;20404;-72
2023/07/04 12:37:54;;;;;;;3.58;2.75;;;29.10;99.90;;;;;;4984864;28;20197;-72
2023/07/04 12:40:25;;;;;;;3.40;2.80;;;29.10;99.90;;;;;;5001883;28;20216;-73
2023/07/04 12:42:54;;;;;;;2.72;2.50;;;29.40;99.90;;;;;;5001440;28;20836;-71
2023/07/04 12:45:25;;;;;;;3.38;2.90;;;29.20;99.90;;;;;;4999669;28;20212;-71
2023/07/04 12:47:57;;;;;;;3.88;2.90;;;29.20;99.90;;;;;;5004950;28;20751;-72
2023/07/04 12:50:25;;;;;;;3.03;2.72;;;29.30;99.90;;;;;;5004707;28;20255;-72
2023/07/04 12:52:52;;;;;;;2.63;2.42;;;29.40;99.90;;;;;;5003699;28;20283;-74
2023/07/04 12:55:28;;;;;;;3.10;2.80;;;29.30;99.90;;;;;;5012831;28;20391;-73
2023/07/04 12:57:57;;;;;;;3.13;2.80;;;29.20;99.90;;;;;;5007502;28;20200;-74
2023/07/04 13:00:27;;;;;;;2.90;2.70;;;29.40;99.90;;;;;;5006792;28;20224;-75
2023/07/04 13:02:56;;;;;;;3.42;2.60;;;29.40;99.90;;;;;;5008395;28;20783;-72
2023/07/04 13:05:26;;;;;;;3.13;2.78;;;29.30;99.90;;;;;;5001162;28;20231;-72
2023/07/04 13:07:54;;;;;;;2.90;2.40;;;29.30;99.90;;;;;;5003485;28;20258;-73
2023/07/04 13:10:26;;;;;;;2.75;2.55;;;29.40;99.90;;;;;;4998883;28;20248;-73